createdAt,value
2023-04-24T00:02:13.336Z,100.00
2023-04-24T00:04:42.793Z,100.00
2023-04-24T00:07:11.250Z,100.00
2023-04-24T00:09:39.327Z,100.00
2023-04-24T00:12:07.414Z,100.00
2023-04-24T00:14:35.411Z,100.00
2023-04-24T00:17:04.795Z,100.00
2023-04-24T00:19:33.095Z,100.00
2023-04-24T00:22:01.027Z,100.00
2023-04-24T00:24:28.982Z,100.00
2023-04-24T00:26:57.008Z,100.00
2023-04-24T00:29:25.067Z,100.00
2023-04-24T00:31:53.326Z,100.00
2023-04-24T00:34:21.357Z,100.00
2023-04-24T00:36:51.333Z,100.00
2023-04-24T00:39:19.342Z,100.00
2023-04-24T00:41:47.854Z,100.00
2023-04-24T00:44:16.018Z,100.00
2023-04-24T00:46:44.059Z,100.00
2023-04-24T00:49:12.171Z,100.00
2023-04-24T00:51:40.123Z,100.00
2023-04-24T00:54:08.070Z,100.00
2023-04-24T00:56:36.317Z,100.00
2023-04-24T00:59:04.223Z,100.00
2023-04-24T01:01:32.927Z,100.00
2023-04-24T01:04:01.103Z,100.00
2023-04-24T01:06:33.445Z,100.00
2023-04-24T01:09:01.799Z,100.00
2023-04-24T01:11:29.746Z,100.00
2023-04-24T01:13:57.800Z,100.00
2023-04-24T01:16:25.861Z,100.00
2023-04-24T01:18:53.873Z,100.00
2023-04-24T01:21:22.249Z,100.00
2023-04-24T01:23:50.302Z,100.00
2023-04-24T01:26:19.150Z,100.00
2023-04-24T01:28:47.095Z,100.00
2023-04-24T01:31:15.178Z,100.00
2023-04-24T01:33:44.199Z,100.00
2023-04-24T01:36:13.344Z,100.00
2023-04-24T01:38:41.499Z,100.00
2023-04-24T01:41:09.520Z,100.00
2023-04-24T01:43:37.548Z,100.00
2023-04-24T01:46:05.554Z,100.00
2023-04-24T01:48:33.774Z,100.00
2023-04-24T01:51:01.829Z,100.00
2023-04-24T01:53:29.838Z,100.00
2023-04-24T01:55:57.908Z,100.00
2023-04-24T01:58:25.823Z,100.00
2023-04-24T02:00:53.874Z,100.00
2023-04-24T02:03:22.076Z,100.00
2023-04-24T02:05:50.200Z,100.00
2023-04-24T02:08:18.147Z,100.00
2023-04-24T02:10:46.554Z,100.00
2023-04-24T02:13:14.566Z,100.00
2023-04-24T02:15:42.667Z,100.00
2023-04-24T02:18:10.892Z,100.00
2023-04-24T02:20:39.194Z,100.00
2023-04-24T02:23:07.422Z,100.00
2023-04-24T02:25:35.845Z,100.00
2023-04-24T02:28:04.669Z,100.00
2023-04-24T02:30:32.928Z,100.00
2023-04-24T02:33:00.819Z,100.00
2023-04-24T02:35:28.970Z,100.00
2023-04-24T02:37:57.005Z,100.00
2023-04-24T02:40:24.949Z,100.00
2023-04-24T02:42:52.868Z,100.00
2023-04-24T02:45:20.938Z,100.00
2023-04-24T02:47:48.957Z,100.00
2023-04-24T02:50:17.204Z,100.00
2023-04-24T02:52:45.292Z,100.00
2023-04-24T02:55:13.368Z,100.00
2023-04-24T02:57:41.379Z,100.00
2023-04-24T03:00:09.812Z,100.00
2023-04-24T03:02:37.910Z,100.00
2023-04-24T03:05:06.832Z,100.00
2023-04-24T03:07:34.805Z,100.00
2023-04-24T03:10:02.853Z,100.00
2023-04-24T03:12:30.878Z,100.00
2023-04-24T03:14:58.901Z,100.00
2023-04-24T03:17:26.933Z,100.00
2023-04-24T03:19:54.842Z,100.00
2023-04-24T03:22:22.846Z,100.00
2023-04-24T03:24:50.851Z,100.00
2023-04-24T03:27:18.767Z,100.00
2023-04-24T03:29:46.837Z,100.00
2023-04-24T03:32:14.840Z,100.00
2023-04-24T03:34:42.862Z,100.00
2023-04-24T03:37:10.777Z,100.00
2023-04-24T03:39:38.772Z,100.00
2023-04-24T03:42:06.957Z,100.00
2023-04-24T03:44:34.947Z,100.00
2023-04-24T03:47:02.957Z,100.00
2023-04-24T03:49:30.923Z,100.00
2023-04-24T03:51:58.817Z,100.00
2023-04-24T03:54:26.792Z,100.00
2023-04-24T03:56:54.711Z,100.00
2023-04-24T03:59:22.740Z,100.00
2023-04-24T04:01:50.821Z,100.00
2023-04-24T04:04:18.999Z,100.00
2023-04-24T04:06:47.110Z,100.00
2023-04-24T04:09:15.152Z,100.00
2023-04-24T04:11:43.103Z,100.00
2023-04-24T04:14:11.049Z,100.00
2023-04-24T04:16:39.055Z,100.00
2023-04-24T04:19:07.914Z,100.00
2023-04-24T04:21:35.855Z,100.00
2023-04-24T04:24:03.839Z,100.00
2023-04-24T04:26:34.993Z,100.00
2023-04-24T04:29:03.341Z,100.00
2023-04-24T04:31:31.841Z,100.00
2023-04-24T04:33:59.919Z,100.00
2023-04-24T04:36:28.335Z,100.00
2023-04-24T04:38:57.007Z,100.00
2023-04-24T04:41:25.231Z,100.00
2023-04-24T04:43:53.155Z,100.00
2023-04-24T04:46:21.234Z,100.00
2023-04-24T04:48:49.218Z,100.00
2023-04-24T04:51:17.191Z,100.00
2023-04-24T04:53:45.257Z,100.00
2023-04-24T04:56:13.237Z,100.00
2023-04-24T04:58:41.270Z,100.00
2023-04-24T05:01:09.478Z,100.00
2023-04-24T05:03:38.561Z,100.00
2023-04-24T05:06:07.003Z,100.00
2023-04-24T05:08:35.182Z,100.00
2023-04-24T05:11:03.459Z,100.00
2023-04-24T05:13:39.084Z,100.00
2023-04-24T05:16:09.477Z,100.00
2023-04-24T05:18:37.623Z,100.00
2023-04-24T05:21:05.738Z,100.00
2023-04-24T05:23:33.772Z,100.00
2023-04-24T05:26:01.820Z,100.00
2023-04-24T05:28:30.642Z,100.00
2023-04-24T05:30:58.962Z,100.00
2023-04-24T05:33:27.183Z,100.00
2023-04-24T05:35:55.247Z,100.00
2023-04-24T05:38:23.469Z,100.00
2023-04-24T05:40:51.540Z,100.00
2023-04-24T05:43:19.859Z,100.00
2023-04-24T05:45:48.262Z,100.00
2023-04-24T05:48:16.363Z,100.00
2023-04-24T05:50:44.598Z,100.00
2023-04-24T05:53:12.926Z,100.00
2023-04-24T05:55:41.123Z,100.00
2023-04-24T05:58:09.086Z,100.00
2023-04-24T06:00:37.840Z,100.00
2023-04-24T06:03:06.180Z,100.00
2023-04-24T06:05:34.455Z,100.00
2023-04-24T06:08:02.474Z,100.00
2023-04-24T06:10:30.571Z,100.00
2023-04-24T06:13:02.538Z,100.00
2023-04-24T06:15:32.658Z,100.00
2023-04-24T06:18:01.157Z,100.00
2023-04-24T06:20:29.316Z,100.00
2023-04-24T06:22:57.406Z,100.00
2023-04-24T06:25:28.012Z,100.00
2023-04-24T06:30:24.061Z,100.00
2023-04-24T06:32:52.369Z,100.00
2023-04-24T06:35:20.552Z,100.00
2023-04-24T06:37:48.641Z,100.00
2023-04-24T06:40:16.859Z,100.00
2023-04-24T06:42:45.069Z,100.00
2023-04-24T06:45:13.612Z,100.00
2023-04-24T06:47:41.797Z,100.00
2023-04-24T06:50:10.217Z,100.00
2023-04-24T06:52:38.317Z,100.00
2023-04-24T06:55:06.822Z,100.00
2023-04-24T06:57:35.272Z,100.00
2023-04-24T07:00:03.464Z,100.00
2023-04-24T07:02:31.513Z,100.00
2023-04-24T07:04:59.599Z,92.73
2023-04-24T07:07:27.649Z,92.68
2023-04-24T07:09:56.494Z,93.33
2023-04-24T07:12:24.592Z,94.99
2023-04-24T07:14:53.129Z,93.79
2023-04-24T07:17:21.132Z,90.49
2023-04-24T07:19:49.157Z,91.86
2023-04-24T07:22:19.253Z,93.42
2023-04-24T07:24:47.389Z,94.52
2023-04-24T07:27:17.120Z,92.52
2023-04-24T07:29:45.803Z,93.06
2023-04-24T07:32:14.074Z,89.93
2023-04-24T07:34:42.385Z,90.49
2023-04-24T07:37:10.399Z,91.07
2023-04-24T07:39:38.461Z,91.02
2023-04-24T07:42:06.766Z,87.43
2023-04-24T07:44:34.951Z,83.73
2023-04-24T07:47:02.885Z,82.33
2023-04-24T07:49:30.875Z,84.22
2023-04-24T07:51:58.856Z,82.81
2023-04-24T07:54:26.969Z,82.40
2023-04-24T07:56:54.904Z,81.58
2023-04-24T07:59:22.870Z,83.92
2023-04-24T08:01:50.838Z,84.24
2023-04-24T08:04:20.292Z,83.34
2023-04-24T08:06:49.885Z,82.23
2023-04-24T08:09:17.786Z,78.83
2023-04-24T08:11:46.187Z,81.07
2023-04-24T08:14:15.630Z,78.40
2023-04-24T08:16:44.262Z,81.98
2023-04-24T08:19:12.503Z,81.44
2023-04-24T08:21:40.619Z,81.94
2023-04-24T08:24:10.370Z,83.03
2023-04-24T08:26:38.584Z,80.80
2023-04-24T08:29:08.447Z,78.44
2023-04-24T08:31:36.890Z,81.11
2023-04-24T08:34:04.945Z,78.64
2023-04-24T08:36:43.411Z,76.83
2023-04-24T08:39:14.347Z,79.62
2023-04-24T08:41:45.193Z,80.51
2023-04-24T08:44:13.313Z,76.20
2023-04-24T08:46:42.340Z,77.38
2023-04-24T08:49:10.554Z,77.62
2023-04-24T08:51:39.432Z,74.69
2023-04-24T08:54:07.659Z,77.21
2023-04-24T08:56:36.396Z,76.18
2023-04-24T08:59:04.399Z,73.35
2023-04-24T09:01:32.469Z,72.94
2023-04-24T09:04:00.720Z,73.86
2023-04-24T09:06:29.519Z,71.22
2023-04-24T09:08:58.864Z,72.91
2023-04-24T09:11:27.264Z,74.18
2023-04-24T09:13:56.144Z,72.60
2023-04-24T09:16:26.499Z,71.00
2023-04-24T09:18:54.632Z,71.12
2023-04-24T09:21:23.576Z,70.35
2023-04-24T09:24:02.108Z,71.09
2023-04-24T09:26:35.113Z,68.68
2023-04-24T09:29:03.288Z,69.68
2023-04-24T09:31:31.955Z,68.94
2023-04-24T09:34:02.092Z,69.14
2023-04-24T09:36:40.089Z,66.69
2023-04-24T09:39:10.623Z,67.86
2023-04-24T09:41:41.189Z,67.20
2023-04-24T09:44:19.472Z,65.26
2023-04-24T09:46:51.174Z,64.33
2023-04-24T09:49:22.570Z,63.38
2023-04-24T09:51:50.545Z,63.56
2023-04-24T09:54:27.116Z,62.79
2023-04-24T09:56:55.103Z,63.55
2023-04-24T09:59:23.207Z,63.72
2023-04-24T10:01:53.126Z,63.05
2023-04-24T10:04:26.580Z,62.20
2023-04-24T10:06:56.278Z,62.87
2023-04-24T10:09:28.514Z,59.66
2023-04-24T10:11:57.055Z,58.63
2023-04-24T10:14:26.581Z,58.38
2023-04-24T10:16:59.997Z,59.46
2023-04-24T10:19:28.366Z,54.89
2023-04-24T10:21:57.955Z,54.97
2023-04-24T10:24:25.997Z,58.55
2023-04-24T10:26:54.040Z,59.95
2023-04-24T10:29:23.788Z,58.89
2023-04-24T10:31:51.931Z,57.16
2023-04-24T10:34:20.233Z,57.95
2023-04-24T10:36:50.491Z,58.94
2023-04-24T10:39:18.470Z,63.90
2023-04-24T10:41:47.202Z,61.68
2023-04-24T10:44:16.831Z,59.58
2023-04-24T10:46:50.613Z,60.22
2023-04-24T10:49:18.581Z,58.60
2023-04-24T10:51:55.226Z,60.39
2023-04-24T10:54:47.240Z,58.36
2023-04-24T10:57:21.998Z,58.96
2023-04-24T10:59:51.109Z,57.10
2023-04-24T11:02:19.877Z,58.48
2023-04-24T11:04:48.563Z,59.60
2023-04-24T11:07:17.161Z,60.82
2023-04-24T11:09:45.483Z,55.21
2023-04-24T11:12:15.108Z,52.71
2023-04-24T11:14:58.867Z,51.61
2023-04-24T11:17:43.187Z,48.58
2023-04-24T11:20:26.962Z,49.95
2023-04-24T11:22:57.038Z,52.99
2023-04-24T11:25:25.200Z,52.32
2023-04-24T11:27:53.185Z,49.10
2023-04-24T11:30:22.345Z,50.69
2023-04-24T11:32:52.188Z,51.85
2023-04-24T11:35:22.637Z,50.46
2023-04-24T11:40:25.339Z,54.21
2023-04-24T11:42:53.940Z,53.75
2023-04-24T11:45:28.364Z,54.04
2023-04-24T11:47:56.414Z,54.24
2023-04-24T11:50:25.549Z,54.43
2023-04-24T11:52:53.554Z,52.99
2023-04-24T11:55:21.652Z,53.67
2023-04-24T11:57:51.071Z,53.16
2023-04-24T12:00:21.039Z,50.70
2023-04-24T12:02:49.703Z,50.66
2023-04-24T12:05:28.925Z,51.77
2023-04-24T12:07:57.358Z,49.38
2023-04-24T12:10:30.488Z,51.84
2023-04-24T12:12:59.278Z,51.95
2023-04-24T12:15:27.512Z,51.48
2023-04-24T12:17:56.147Z,52.19
2023-04-24T12:20:32.473Z,53.11
2023-04-24T12:23:03.812Z,51.31
2023-04-24T12:25:34.104Z,51.38
2023-04-24T12:28:05.461Z,51.81
2023-04-24T12:30:37.764Z,48.29
2023-04-24T12:33:05.881Z,48.67
2023-04-24T12:35:35.726Z,49.86
2023-04-24T12:38:16.291Z,49.15
2023-04-24T12:40:45.030Z,48.23
2023-04-24T12:43:22.284Z,47.78
2023-04-24T12:45:50.403Z,48.83
2023-04-24T12:48:18.535Z,50.73
2023-04-24T12:50:47.472Z,47.99
2023-04-24T12:53:16.074Z,48.60
2023-04-24T12:55:44.225Z,46.61
2023-04-24T12:58:12.234Z,47.49
2023-04-24T13:00:41.064Z,47.46
2023-04-24T13:03:09.260Z,48.07
2023-04-24T13:05:37.398Z,46.86
2023-04-24T13:08:05.611Z,47.52
2023-04-24T13:10:33.681Z,44.50
2023-04-24T13:13:01.895Z,49.63
2023-04-24T13:15:29.835Z,46.70
2023-04-24T13:17:57.993Z,48.17
2023-04-24T13:20:26.109Z,47.93
2023-04-24T13:22:54.267Z,46.92
2023-04-24T13:25:22.861Z,48.19
2023-04-24T13:27:50.840Z,46.81
2023-04-24T13:30:18.942Z,46.79
2023-04-24T13:32:47.129Z,43.98
2023-04-24T13:35:15.119Z,45.63
2023-04-24T13:37:43.101Z,45.33
2023-04-24T13:40:11.761Z,46.82
2023-04-24T13:42:39.792Z,43.34
2023-04-24T13:45:23.416Z,44.48
2023-04-24T13:47:53.236Z,44.30
2023-04-24T13:50:21.607Z,45.43
2023-04-24T13:52:49.732Z,45.40
2023-04-24T13:55:17.798Z,45.15
2023-04-24T13:57:45.752Z,44.90
2023-04-24T14:00:14.165Z,44.41
2023-04-24T14:02:42.481Z,43.88
2023-04-24T14:05:11.958Z,44.60
2023-04-24T14:07:40.070Z,45.59
2023-04-24T14:10:08.366Z,45.18
2023-04-24T14:12:36.543Z,45.42
2023-04-24T14:15:04.829Z,45.30
2023-04-24T14:17:33.408Z,45.39
2023-04-24T14:20:03.020Z,44.86
2023-04-24T14:22:31.128Z,44.46
2023-04-24T14:25:00.156Z,44.78
2023-04-24T14:27:28.604Z,44.46
2023-04-24T14:29:57.249Z,44.94
2023-04-24T14:32:25.349Z,45.95
2023-04-24T14:34:53.458Z,45.66
2023-04-24T14:37:21.480Z,45.29
2023-04-24T14:39:56.207Z,44.36
2023-04-24T14:42:34.586Z,45.84
2023-04-24T14:45:02.725Z,45.71
2023-04-24T14:47:31.610Z,47.45
2023-04-24T14:49:59.692Z,47.66
2023-04-24T14:52:28.067Z,49.05
2023-04-24T14:54:56.059Z,48.34
2023-04-24T14:57:24.171Z,48.59
2023-04-24T14:59:52.189Z,49.56
2023-04-24T15:02:22.244Z,49.56
2023-04-24T15:04:50.850Z,48.34
2023-04-24T15:07:19.270Z,49.21
2023-04-24T15:09:49.374Z,49.35
2023-04-24T15:12:17.732Z,49.91
2023-04-24T15:14:45.759Z,48.65
2023-04-24T15:17:13.731Z,50.16
2023-04-24T15:19:41.898Z,50.08
2023-04-24T15:22:09.895Z,50.89
2023-04-24T15:24:37.926Z,51.88
2023-04-24T15:27:05.905Z,51.29
2023-04-24T15:29:34.081Z,50.26
2023-04-24T15:32:02.225Z,51.29
2023-04-24T15:34:30.238Z,51.33
2023-04-24T15:36:58.224Z,52.58
2023-04-24T15:39:26.755Z,51.04
2023-04-24T15:41:55.687Z,51.31
2023-04-24T15:44:23.996Z,50.97
2023-04-24T15:46:53.565Z,50.41
2023-04-24T15:49:21.819Z,50.62
2023-04-24T15:51:49.768Z,50.25
2023-04-24T15:54:17.998Z,52.18
2023-04-24T15:56:46.709Z,51.76
2023-04-24T15:59:14.841Z,51.77
2023-04-24T16:01:42.942Z,50.96
2023-04-24T16:04:11.141Z,48.96
2023-04-24T16:06:39.391Z,49.79
2023-04-24T16:09:07.789Z,50.49
2023-04-24T16:11:37.893Z,51.14
2023-04-24T16:14:05.929Z,50.98
2023-04-24T16:16:34.315Z,51.04
2023-04-24T16:19:02.755Z,51.73
2023-04-24T16:21:31.032Z,51.62
2023-04-24T16:23:58.977Z,51.75
2023-04-24T16:26:27.789Z,52.53
2023-04-24T16:28:57.264Z,53.53
2023-04-24T16:31:25.370Z,52.28
2023-04-24T16:33:53.327Z,52.70
2023-04-24T16:36:22.151Z,52.99
2023-04-24T16:38:52.945Z,52.75
2023-04-24T16:41:20.932Z,53.33
2023-04-24T16:43:48.947Z,53.55
2023-04-24T16:46:17.033Z,54.12
2023-04-24T16:48:45.094Z,54.68
2023-04-24T16:51:13.059Z,54.88
2023-04-24T16:53:41.066Z,54.23
2023-04-24T16:56:09.123Z,54.35
2023-04-24T16:58:37.299Z,53.89
2023-04-24T17:01:05.534Z,54.47
2023-04-24T17:03:33.757Z,54.67
2023-04-24T17:06:02.459Z,54.74
2023-04-24T17:08:31.329Z,55.59
2023-04-24T17:10:59.317Z,55.23
2023-04-24T17:13:27.535Z,54.50
2023-04-24T17:15:55.610Z,54.62
2023-04-24T17:18:23.683Z,54.36
2023-04-24T17:20:51.762Z,55.07
2023-04-24T17:23:19.758Z,54.98
2023-04-24T17:25:47.828Z,54.71
2023-04-24T17:28:27.188Z,55.18
2023-04-24T17:30:56.998Z,55.12
2023-04-24T17:33:28.785Z,56.60
2023-04-24T17:35:57.331Z,56.37
2023-04-24T17:38:25.860Z,57.07
2023-04-24T17:40:54.519Z,57.85
2023-04-24T17:43:22.508Z,56.92
2023-04-24T17:45:54.754Z,57.03
2023-04-24T17:48:23.646Z,57.04
2023-04-24T17:50:51.736Z,56.78
2023-04-24T17:53:24.125Z,56.84
2023-04-24T17:55:52.173Z,56.77
2023-04-24T17:58:20.400Z,56.45
2023-04-24T18:00:48.492Z,56.20
2023-04-24T18:03:17.051Z,56.28
2023-04-24T18:05:45.179Z,56.32
2023-04-24T18:08:13.193Z,56.01
2023-04-24T18:10:41.823Z,56.25
2023-04-24T18:13:11.276Z,56.48
2023-04-24T18:15:43.654Z,55.96
2023-04-24T18:18:12.542Z,56.36
2023-04-24T18:20:40.743Z,56.72
2023-04-24T18:23:08.754Z,56.69
2023-04-24T18:25:36.835Z,57.00
2023-04-24T18:28:04.924Z,56.90
2023-04-24T18:30:33.905Z,56.13
2023-04-24T18:33:02.052Z,57.42
2023-04-24T18:35:30.135Z,59.30
2023-04-24T18:37:58.227Z,61.21
2023-04-24T18:40:26.250Z,62.57
2023-04-24T18:42:54.286Z,64.61
2023-04-24T18:45:22.631Z,64.74
2023-04-24T18:47:51.512Z,65.19
2023-04-24T18:50:20.758Z,67.04
2023-04-24T18:52:48.806Z,65.26
2023-04-24T18:55:16.789Z,64.68
2023-04-24T18:57:44.792Z,64.33
2023-04-24T19:00:13.324Z,63.26
2023-04-24T19:02:41.492Z,62.77
2023-04-24T19:05:11.727Z,63.83
2023-04-24T19:07:39.773Z,61.73
2023-04-24T19:10:08.524Z,61.29
2023-04-24T19:12:36.510Z,60.92
2023-04-24T19:15:04.725Z,60.37
2023-04-24T19:17:33.320Z,59.67
2023-04-24T19:20:01.474Z,59.33
2023-04-24T19:22:30.999Z,59.38
2023-04-24T19:25:00.102Z,59.89
2023-04-24T19:27:28.139Z,59.86
2023-04-24T19:29:56.269Z,60.31
2023-04-24T19:32:24.409Z,60.54
2023-04-24T19:34:52.591Z,61.21
2023-04-24T19:37:20.680Z,61.43
2023-04-24T19:39:48.758Z,61.58
2023-04-24T19:42:18.185Z,61.79
2023-04-24T19:44:49.361Z,61.81
2023-04-24T19:47:17.416Z,61.91
2023-04-24T19:49:45.513Z,62.28
2023-04-24T19:52:13.483Z,62.45
2023-04-24T19:54:41.896Z,62.42
2023-04-24T19:57:09.945Z,62.78
2023-04-24T19:59:38.118Z,63.08
2023-04-24T20:02:06.187Z,63.44
2023-04-24T20:04:34.350Z,62.76
2023-04-24T20:07:02.530Z,63.06
2023-04-24T20:09:32.451Z,63.38
2023-04-24T20:12:01.836Z,63.64
2023-04-24T20:14:29.872Z,63.76
2023-04-24T20:16:57.875Z,64.34
2023-04-24T20:19:25.934Z,65.09
2023-04-24T20:21:54.149Z,65.32
2023-04-24T20:24:22.254Z,65.50
2023-04-24T20:26:50.422Z,65.87
2023-04-24T20:29:18.509Z,66.12
2023-04-24T20:31:46.636Z,65.83
2023-04-24T20:34:14.760Z,65.63
2023-04-24T20:36:46.885Z,65.85
2023-04-24T20:39:16.985Z,65.98
2023-04-24T20:41:45.556Z,66.33
2023-04-24T20:44:13.640Z,66.70
2023-04-24T20:46:41.863Z,66.64
2023-04-24T20:49:09.909Z,66.33
2023-04-24T20:51:38.396Z,66.84
2023-04-24T20:54:07.272Z,66.75
2023-04-24T20:56:35.445Z,66.59
2023-04-24T20:59:03.520Z,66.60
2023-04-24T21:01:31.710Z,66.45
2023-04-24T21:03:59.861Z,66.64
2023-04-24T21:06:27.968Z,66.52
2023-04-24T21:08:56.012Z,66.72
2023-04-24T21:11:23.974Z,67.12
2023-04-24T21:13:52.131Z,67.18
2023-04-24T21:16:20.172Z,67.38
2023-04-24T21:18:48.376Z,68.09
2023-04-24T21:21:16.426Z,68.12
2023-04-24T21:23:44.536Z,68.61
2023-04-24T21:26:12.553Z,68.48
2023-04-24T21:28:40.821Z,68.59
2023-04-24T21:31:09.171Z,68.88
2023-04-24T21:33:37.317Z,69.35
2023-04-24T21:36:05.647Z,69.22
2023-04-24T21:38:34.026Z,69.65
2023-04-24T21:41:02.208Z,70.53
2023-04-24T21:43:49.829Z,70.54
2023-04-24T21:46:18.374Z,70.24
2023-04-24T21:48:46.418Z,70.89
2023-04-24T21:51:14.569Z,71.49
2023-04-24T21:53:42.887Z,70.94
2023-04-24T21:56:10.834Z,70.69
2023-04-24T21:58:38.914Z,71.86
2023-04-24T22:01:07.274Z,71.50
2023-04-24T22:03:35.475Z,70.96
2023-04-24T22:06:03.772Z,70.93
2023-04-24T22:08:31.732Z,70.30
2023-04-24T22:10:59.893Z,69.97
2023-04-24T22:13:28.643Z,69.52
2023-04-24T22:15:56.754Z,69.62
2023-04-24T22:18:33.321Z,69.69
2023-04-24T22:21:08.450Z,69.86
2023-04-24T22:23:36.526Z,70.22
2023-04-24T22:26:04.627Z,72.22
2023-04-24T22:28:32.755Z,70.93
2023-04-24T22:31:00.760Z,70.78
2023-04-24T22:33:28.666Z,70.74
2023-04-24T22:35:56.910Z,70.81
2023-04-24T22:38:25.065Z,70.87
2023-04-24T22:40:53.053Z,70.86
2023-04-24T22:43:21.305Z,71.21
2023-04-24T22:45:49.293Z,70.66
2023-04-24T22:48:17.747Z,70.38
2023-04-24T22:50:45.670Z,70.24
2023-04-24T22:53:13.648Z,70.19
2023-04-24T22:55:41.666Z,69.89
2023-04-24T22:58:09.584Z,70.20
2023-04-24T23:00:37.727Z,70.52
2023-04-24T23:03:05.982Z,71.20
2023-04-24T23:05:34.034Z,71.68
2023-04-24T23:08:01.962Z,70.54
2023-04-24T23:10:30.027Z,70.34
2023-04-24T23:12:58.032Z,70.44
2023-04-24T23:15:26.151Z,70.31
2023-04-24T23:17:54.150Z,70.51
2023-04-24T23:20:22.884Z,70.86
2023-04-24T23:22:50.902Z,70.51
2023-04-24T23:25:18.960Z,71.63
2023-04-24T23:27:46.988Z,71.04
2023-04-24T23:30:15.016Z,70.75
2023-04-24T23:32:45.367Z,71.08
2023-04-24T23:35:14.010Z,73.51
2023-04-24T23:37:42.118Z,71.54
2023-04-24T23:40:13.541Z,71.15
2023-04-24T23:42:41.562Z,71.32
2023-04-24T23:45:11.880Z,72.10
2023-04-24T23:47:39.872Z,71.98
2023-04-24T23:50:08.096Z,71.72
2023-04-24T23:52:36.877Z,71.68
2023-04-24T23:55:06.090Z,71.92
2023-04-24T23:57:34.066Z,71.82
